Vremea mâine în Băile Tușnad - Romania

Vrei sa afli care e starea vremii acum in Covasna - Romania? Dorim sa iti furnizam starea vremii pentru Covasna - Romania. Starea vremii Covasna - Romania pentru astazi.

Vremea mâine în Băile Tușnad

Temperatura minimă:
3.3 °C

Temperatura maximă:
19.7 °C

Mâine va fi: Senin
Precipitații: 0 %
Umiditate: 62%
Viteza maximă vânt mâine:
11.2 km/h

Evoluția vremii in Băile Tușnad pe ore mâine

Ora: 04:00
Temperatura: °C
Sansa de precipitatii: %
Ora Descriere Temp Se simte Precipitatii Umiditate Vant
00:00Senin5.1°3.9°0%87%N 5.8 KM/H
01:00Senin4.8°3.3°0%88%N 6.5 KM/H
02:00Senin4.4°2.8°0%88%NNE 6.8 KM/H
03:00Senin4.1°2.4°0%89%N 6.8 KM/H
04:00Senin3.8°2.1°0%89%N 6.8 KM/H
05:00Senin3.5°1.9°0%90%N 6.5 KM/H
06:00Senin3.3°1.7°0%90%NNE 6.1 KM/H
07:00Senin4.9°3.9°0%83%N 5.4 KM/H
08:00Senin11.1°11.4°0%68%NNE 3.6 KM/H
09:00Senin14.1°14.1°0%56%NE 2.5 KM/H
10:00Senin16.2°16.2°0%45%E 4.7 KM/H
11:00Senin17.4°17.4°0%40%E 7.9 KM/H
12:00Senin18.5°18.5°0%36%E 10.1 KM/H
13:00Senin19.1°19.1°0%33%E 11.2 KM/H
14:00Senin19.4°19.4°0%32%E 11.2 KM/H
15:00Senin19.7°19.7°0%32%ESE 10.8 KM/H
16:00Senin19.6°19.7°0%32%ESE 9.7 KM/H
17:00Senin19.3°19.3°0%33%ESE 10.4 KM/H
18:00Senin18.6°18.6°0%38%ESE 10.8 KM/H
19:00Senin16.7°16.7°0%50%ESE 9.7 KM/H
20:00Senin10.5°9.8°0%65%ESE 6.8 KM/H
21:00Senin7.8°0%71%E 6.1 KM/H
22:00Senin6.2°0%74%E 5.4 KM/H
23:00Senin6.4°5.8°0%76%E 4.7 KM/H




tutorials